North Rose, New York
Current Conditions -  °F | °C
As of 12:28 AM on Thursday 18 Dec 2014 (Local Time) from KFZY Reporting Station
Light Snow Light Snow  
Wind Chill: 22°   Ceiling: 900
Heat Index: 33°   Visibility: 2mi
Dew Point: 29°   Wind: 18mph
Humidity: 85%   Direction: 260°W
Pressure: 29.9"   Gusts: 26mph
Location:  43.19°N, 76.89°W
Report Text: KFZY 180528Z AUTO 26016G23KT 2SM -SN BR OVC009 01/M02 A2990 RMK AO2 CIG 006V012 P0000 T00061017
Loading
Personal Weather Stations






























Interactive Weather Map New forecast layout! Learn more

10-Day Weather Forecast

Advertisements
Track Severe Weather on mobile